BOX1608 KPHX-MMUN
Flight info
| Callsign | BOX1608 |
|---|---|
| Flight time | 3h 24m |
| Altitude | 35000 |
| Route | ECLPS1 PHASE DCT ELP DCT FST DCT DLF DCT LRD DCT MAM UT22 VESKO UT11 URTEL UT34 VOMAR VOMAR1A |
| Aircraft | B77L/H-SDE1E2E3FGHIJ2J3J4J5M1RWXY/LB1D1 |
Departure
| Time | 2026-05-08 02:41 |
|---|---|
| Airport | Phoenix Sky Harbor International Airport (KPHX) |
Arrival
| Time | 2026-05-08 06:06 |
|---|---|
| Airport | Cancún International Airport (MMUN) |
| Time | Latitude | Longitude | Altitude | Speed | Heading |
|---|---|---|---|---|---|
| 2026-05-08 02:13 | 33.43424 | -112.02514 | 1132 ft | 0 kts | 0° |
| 2026-05-08 02:29 | 33.43417 | -112.02514 | 1132 ft | 2 kts | 3° |
| 2026-05-08 02:30 | 33.43402 | -112.02516 | 1132 ft | 2 kts | 15° |
| 2026-05-08 02:30 | 33.43388 | -112.02522 | 1132 ft | 2 kts | 24° |
| 2026-05-08 02:30 | 33.43375 | -112.02530 | 1132 ft | 2 kts | 33° |
| 2026-05-08 02:30 | 33.43362 | -112.02541 | 1132 ft | 2 kts | 43° |
| 2026-05-08 02:31 | 33.43352 | -112.02554 | 1132 ft | 2 kts | 53° |
| 2026-05-08 02:31 | 33.43344 | -112.02569 | 1132 ft | 2 kts | 62° |
| 2026-05-08 02:31 | 33.43338 | -112.02586 | 1132 ft | 2 kts | 72° |
| 2026-05-08 02:31 | 33.43334 | -112.02603 | 1132 ft | 2 kts | 81° |
| 2026-05-08 02:32 | 33.43332 | -112.02621 | 1132 ft | 2 kts | 91° |
| 2026-05-08 02:32 | 33.43333 | -112.02639 | 1132 ft | 2 kts | 91° |
| 2026-05-08 02:32 | 33.43333 | -112.02649 | 1132 ft | 0 kts | 90° |
| 2026-05-08 02:35 | 33.43333 | -112.02647 | 1132 ft | 0 kts | 90° |
| 2026-05-08 02:35 | 33.43333 | -112.02619 | 1132 ft | 5 kts | 89° |
| 2026-05-08 02:36 | 33.43330 | -112.02562 | 1132 ft | 7 kts | 111° |
| 2026-05-08 02:36 | 33.43302 | -112.02509 | 1132 ft | 9 kts | 127° |
| 2026-05-08 02:36 | 33.43245 | -112.02445 | 1133 ft | 12 kts | 131° |
| 2026-05-08 02:36 | 33.43217 | -112.02328 | 1133 ft | 16 kts | 85° |
| 2026-05-08 02:37 | 33.43221 | -112.02174 | 1134 ft | 20 kts | 91° |
| 2026-05-08 02:37 | 33.43216 | -112.01993 | 1134 ft | 23 kts | 91° |
| 2026-05-08 02:37 | 33.43218 | -112.01784 | 1136 ft | 26 kts | 89° |
| 2026-05-08 02:37 | 33.43219 | -112.01556 | 1137 ft | 28 kts | 90° |
| 2026-05-08 02:38 | 33.43216 | -112.01302 | 1139 ft | 31 kts | 91° |
| 2026-05-08 02:38 | 33.43216 | -112.01027 | 1140 ft | 33 kts | 89° |
| 2026-05-08 02:38 | 33.43217 | -112.00734 | 1141 ft | 35 kts | 90° |
| 2026-05-08 02:38 | 33.43215 | -112.00455 | 1141 ft | 32 kts | 90° |
| 2026-05-08 02:39 | 33.43216 | -112.00195 | 1140 ft | 29 kts | 91° |
| 2026-05-08 02:39 | 33.43218 | -111.99956 | 1139 ft | 27 kts | 89° |
| 2026-05-08 02:39 | 33.43216 | -111.99741 | 1139 ft | 24 kts | 90° |
| 2026-05-08 02:39 | 33.43216 | -111.99551 | 1140 ft | 21 kts | 90° |
| 2026-05-08 02:40 | 33.43213 | -111.99406 | 1140 ft | 7 kts | 95° |
| 2026-05-08 02:40 | 33.43168 | -111.99344 | 1140 ft | 15 kts | 173° |
| 2026-05-08 02:40 | 33.43104 | -111.99445 | 1139 ft | 19 kts | 268° |
| 2026-05-08 02:40 | 33.43103 | -111.99778 | 1139 ft | 71 kts | 270° |
| 2026-05-08 02:41 | 33.43099 | -112.00668 | 1140 ft | 139 kts | 270° |
| 2026-05-08 02:41 | 33.43099 | -112.02091 | 1219 ft | 191 kts | 268° |
| 2026-05-08 02:41 | 33.43055 | -112.03682 | 2026 ft | 191 kts | 265° |
| 2026-05-08 02:41 | 33.42932 | -112.05231 | 2618 ft | 192 kts | 257° |
| 2026-05-08 02:42 | 33.42538 | -112.06866 | 2798 ft | 210 kts | 253° |
| 2026-05-08 02:42 | 33.42072 | -112.08607 | 3013 ft | 223 kts | 253° |
| 2026-05-08 02:42 | 33.41570 | -112.10462 | 3239 ft | 246 kts | 253° |
| 2026-05-08 02:42 | 33.41032 | -112.12449 | 3719 ft | 261 kts | 253° |
| 2026-05-08 02:43 | 33.40456 | -112.14546 | 4400 ft | 268 kts | 250° |
| 2026-05-08 02:43 | 33.39453 | -112.16442 | 5107 ft | 277 kts | 226° |
| 2026-05-08 02:43 | 33.37802 | -112.17665 | 5781 ft | 286 kts | 199° |
| 2026-05-08 02:43 | 33.35831 | -112.17874 | 6442 ft | 294 kts | 171° |
| 2026-05-08 02:44 | 33.33844 | -112.17278 | 7166 ft | 297 kts | 163° |
| 2026-05-08 02:44 | 33.31825 | -112.16517 | 7901 ft | 300 kts | 162° |
| 2026-05-08 02:44 | 33.29839 | -112.15709 | 8565 ft | 303 kts | 152° |
| 2026-05-08 02:44 | 33.28093 | -112.14239 | 9172 ft | 305 kts | 136° |
| 2026-05-08 02:45 | 33.26541 | -112.12482 | 9948 ft | 304 kts | 133° |
| 2026-05-08 02:45 | 33.25057 | -112.10674 | 10539 ft | 310 kts | 127° |
| 2026-05-08 02:45 | 33.23854 | -112.08466 | 10830 ft | 324 kts | 111° |
| 2026-05-08 02:45 | 33.23067 | -112.05868 | 11131 ft | 340 kts | 104° |
| 2026-05-08 02:46 | 33.22355 | -112.03101 | 11514 ft | 356 kts | 104° |
| 2026-05-08 02:46 | 33.21621 | -112.00246 | 11969 ft | 370 kts | 104° |
| 2026-05-08 02:46 | 33.20849 | -111.97277 | 12519 ft | 381 kts | 104° |
| 2026-05-08 02:46 | 33.20047 | -111.94211 | 13272 ft | 388 kts | 104° |
| 2026-05-08 02:47 | 33.19246 | -111.91157 | 14192 ft | 389 kts | 104° |
| 2026-05-08 02:47 | 33.18439 | -111.88088 | 15181 ft | 390 kts | 104° |
| 2026-05-08 02:47 | 33.17618 | -111.84965 | 16176 ft | 391 kts | 104° |
| 2026-05-08 02:47 | 33.16793 | -111.81832 | 17113 ft | 393 kts | 104° |
| 2026-05-08 02:48 | 33.15959 | -111.78667 | 17947 ft | 397 kts | 105° |
| 2026-05-08 02:48 | 33.15121 | -111.75493 | 18721 ft | 402 kts | 104° |
| 2026-05-08 02:48 | 33.14280 | -111.72308 | 19464 ft | 407 kts | 104° |
| 2026-05-08 02:48 | 33.13412 | -111.69028 | 20208 ft | 412 kts | 104° |
| 2026-05-08 02:49 | 33.12532 | -111.65705 | 20891 ft | 418 kts | 104° |
| 2026-05-08 02:49 | 33.11591 | -111.62157 | 21599 ft | 423 kts | 103° |
| 2026-05-08 02:49 | 33.10686 | -111.58748 | 22275 ft | 428 kts | 103° |
| 2026-05-08 02:49 | 33.09746 | -111.55213 | 22919 ft | 434 kts | 103° |
| 2026-05-08 02:50 | 33.08821 | -111.51737 | 23526 ft | 440 kts | 103° |
| 2026-05-08 02:50 | 33.07901 | -111.48287 | 24216 ft | 443 kts | 103° |
| 2026-05-08 02:50 | 33.06739 | -111.44816 | 24891 ft | 451 kts | 111° |
| 2026-05-08 02:50 | 33.05126 | -111.41518 | 25518 ft | 458 kts | 117° |
| 2026-05-08 02:51 | 33.03375 | -111.38302 | 26113 ft | 462 kts | 117° |
| 2026-05-08 02:51 | 33.01611 | -111.35084 | 26602 ft | 468 kts | 117° |
| 2026-05-08 02:51 | 32.99819 | -111.31818 | 27159 ft | 473 kts | 117° |
| 2026-05-08 02:51 | 32.97990 | -111.28489 | 27860 ft | 474 kts | 117° |
| 2026-05-08 02:52 | 32.96172 | -111.25182 | 28500 ft | 476 kts | 117° |
| 2026-05-08 02:52 | 32.94338 | -111.21847 | 29070 ft | 480 kts | 117° |
| 2026-05-08 02:52 | 32.92502 | -111.18511 | 29678 ft | 482 kts | 117° |
| 2026-05-08 02:52 | 32.90649 | -111.15149 | 30353 ft | 483 kts | 117° |
| 2026-05-08 02:53 | 32.88815 | -111.11825 | 31085 ft | 480 kts | 117° |
| 2026-05-08 02:53 | 32.86976 | -111.08495 | 31789 ft | 478 kts | 116° |
| 2026-05-08 02:53 | 32.85173 | -111.05231 | 32386 ft | 477 kts | 117° |
| 2026-05-08 02:53 | 32.83338 | -111.01912 | 32950 ft | 476 kts | 117° |
| 2026-05-08 02:54 | 32.81528 | -110.98639 | 33439 ft | 476 kts | 117° |
| 2026-05-08 02:54 | 32.79729 | -110.95390 | 33882 ft | 477 kts | 117° |
| 2026-05-08 02:54 | 32.77900 | -110.92088 | 34324 ft | 478 kts | 117° |
| 2026-05-08 02:54 | 32.76067 | -110.88785 | 34838 ft | 478 kts | 118° |
| 2026-05-08 02:55 | 32.74236 | -110.85484 | 35012 ft | 480 kts | 118° |
| 2026-05-08 02:55 | 32.70587 | -110.78921 | 35054 ft | 477 kts | 119° |
| 2026-05-08 02:56 | 32.66922 | -110.72341 | 35092 ft | 478 kts | 119° |
| 2026-05-08 02:56 | 32.63961 | -110.65413 | 35129 ft | 473 kts | 104° |
| 2026-05-08 02:57 | 32.62238 | -110.57922 | 35091 ft | 468 kts | 101° |
| 2026-05-08 02:57 | 32.60611 | -110.50523 | 35011 ft | 466 kts | 102° |
| 2026-05-08 02:58 | 32.58968 | -110.43085 | 35050 ft | 469 kts | 102° |
| 2026-05-08 02:58 | 32.57318 | -110.35653 | 35056 ft | 464 kts | 102° |
| 2026-05-08 02:59 | 32.55673 | -110.28264 | 35116 ft | 467 kts | 103° |
| 2026-05-08 02:59 | 32.54010 | -110.20822 | 35169 ft | 468 kts | 103° |
| 2026-05-08 03:00 | 32.52351 | -110.13422 | 35152 ft | 465 kts | 103° |
| 2026-05-08 03:00 | 32.50688 | -110.06029 | 35144 ft | 467 kts | 103° |
| 2026-05-08 03:01 | 32.49008 | -109.98579 | 35118 ft | 467 kts | 103° |
| 2026-05-08 03:01 | 32.47340 | -109.91209 | 35133 ft | 466 kts | 103° |
| 2026-05-08 03:02 | 32.45659 | -109.83797 | 35125 ft | 467 kts | 104° |
| 2026-05-08 03:02 | 32.43975 | -109.76363 | 35149 ft | 470 kts | 102° |
| 2026-05-08 03:03 | 32.42912 | -109.68818 | 35178 ft | 469 kts | 98° |
| 2026-05-08 03:03 | 32.41958 | -109.61193 | 35136 ft | 466 kts | 98° |
| 2026-05-08 03:04 | 32.41003 | -109.53643 | 35137 ft | 469 kts | 98° |
| 2026-05-08 03:04 | 32.40034 | -109.46027 | 35115 ft | 467 kts | 98° |
| 2026-05-08 03:05 | 32.39062 | -109.38432 | 35107 ft | 469 kts | 98° |
| 2026-05-08 03:05 | 32.38080 | -109.30804 | 35103 ft | 469 kts | 99° |
| 2026-05-08 03:06 | 32.37097 | -109.23205 | 35094 ft | 469 kts | 101° |
| 2026-05-08 03:06 | 32.36095 | -109.15514 | 35123 ft | 478 kts | 100° |
| 2026-05-08 03:07 | 32.34792 | -109.07878 | 35119 ft | 482 kts | 105° |
| 2026-05-08 03:07 | 32.33362 | -109.00035 | 35138 ft | 493 kts | 105° |
| 2026-05-08 03:08 | 32.31926 | -108.92100 | 35123 ft | 498 kts | 105° |
| 2026-05-08 03:08 | 32.30477 | -108.84073 | 35117 ft | 499 kts | 105° |
| 2026-05-08 03:09 | 32.29031 | -108.76074 | 35079 ft | 499 kts | 105° |
| 2026-05-08 03:09 | 32.27583 | -108.68088 | 35075 ft | 502 kts | 105° |
| 2026-05-08 03:10 | 32.26111 | -108.59998 | 35086 ft | 504 kts | 105° |
| 2026-05-08 03:10 | 32.24642 | -108.51942 | 35114 ft | 504 kts | 105° |
| 2026-05-08 03:11 | 32.23166 | -108.43879 | 35138 ft | 503 kts | 106° |
| 2026-05-08 03:11 | 32.21682 | -108.35808 | 35148 ft | 508 kts | 106° |
| 2026-05-08 03:12 | 32.20176 | -108.27647 | 35143 ft | 509 kts | 107° |
| 2026-05-08 03:12 | 32.18677 | -108.19550 | 35156 ft | 508 kts | 107° |
| 2026-05-08 03:13 | 32.17155 | -108.11364 | 35142 ft | 512 kts | 107° |
| 2026-05-08 03:13 | 32.15637 | -108.03221 | 35137 ft | 510 kts | 107° |
| 2026-05-08 03:14 | 32.14097 | -107.95004 | 35128 ft | 513 kts | 107° |
| 2026-05-08 03:14 | 32.12562 | -107.86838 | 35111 ft | 512 kts | 107° |
| 2026-05-08 03:15 | 32.11002 | -107.78580 | 35107 ft | 521 kts | 107° |
| 2026-05-08 03:15 | 32.09438 | -107.70316 | 35090 ft | 517 kts | 108° |
| 2026-05-08 03:16 | 32.07871 | -107.62071 | 35088 ft | 519 kts | 108° |
| 2026-05-08 03:16 | 32.06292 | -107.53800 | 35090 ft | 521 kts | 108° |
| 2026-05-08 03:17 | 32.04700 | -107.45487 | 35083 ft | 519 kts | 108° |
| 2026-05-08 03:17 | 32.03105 | -107.37195 | 35103 ft | 523 kts | 108° |
| 2026-05-08 03:18 | 32.01504 | -107.28894 | 35092 ft | 520 kts | 109° |
| 2026-05-08 03:18 | 31.99891 | -107.20571 | 35096 ft | 525 kts | 109° |
| 2026-05-08 03:19 | 31.98268 | -107.12226 | 35082 ft | 526 kts | 109° |
| 2026-05-08 03:19 | 31.96627 | -107.03818 | 35080 ft | 528 kts | 109° |
| 2026-05-08 03:20 | 31.94977 | -106.95392 | 35078 ft | 528 kts | 109° |
| 2026-05-08 03:20 | 31.93328 | -106.87000 | 35077 ft | 526 kts | 109° |
| 2026-05-08 03:21 | 31.91670 | -106.78604 | 35058 ft | 529 kts | 109° |
| 2026-05-08 03:21 | 31.90017 | -106.70254 | 35051 ft | 526 kts | 109° |
| 2026-05-08 03:22 | 31.88350 | -106.61867 | 35067 ft | 524 kts | 109° |
| 2026-05-08 03:22 | 31.86688 | -106.53540 | 35069 ft | 527 kts | 109° |
| 2026-05-08 03:23 | 31.85015 | -106.45184 | 35072 ft | 524 kts | 109° |
| 2026-05-08 03:23 | 31.83343 | -106.36867 | 35069 ft | 526 kts | 109° |
| 2026-05-08 03:24 | 31.81648 | -106.28464 | 35063 ft | 525 kts | 110° |
| 2026-05-08 03:24 | 31.79725 | -106.20306 | 35059 ft | 519 kts | 113° |
| 2026-05-08 03:25 | 31.77678 | -106.12159 | 35075 ft | 520 kts | 113° |
| 2026-05-08 03:25 | 31.75632 | -106.03985 | 35096 ft | 522 kts | 113° |
| 2026-05-08 03:26 | 31.73595 | -105.95830 | 35120 ft | 521 kts | 113° |
| 2026-05-08 03:26 | 31.71538 | -105.87608 | 35129 ft | 522 kts | 113° |
| 2026-05-08 03:27 | 31.69500 | -105.79472 | 35130 ft | 522 kts | 113° |
| 2026-05-08 03:27 | 31.67437 | -105.71257 | 35138 ft | 523 kts | 113° |
| 2026-05-08 03:28 | 31.65371 | -105.63058 | 35140 ft | 525 kts | 113° |
| 2026-05-08 03:28 | 31.63313 | -105.54897 | 35132 ft | 521 kts | 113° |
| 2026-05-08 03:29 | 31.61228 | -105.46671 | 35135 ft | 526 kts | 114° |
| 2026-05-08 03:29 | 31.59151 | -105.38487 | 35130 ft | 525 kts | 114° |
| 2026-05-08 03:30 | 31.56023 | -105.26209 | 35118 ft | 522 kts | 114° |
| 2026-05-08 03:31 | 31.51816 | -105.09791 | 35144 ft | 523 kts | 115° |
| 2026-05-08 03:32 | 31.48655 | -104.97520 | 35178 ft | 527 kts | 115° |
| 2026-05-08 03:32 | 31.46539 | -104.89330 | 35161 ft | 528 kts | 115° |
| 2026-05-08 03:33 | 31.44418 | -104.81142 | 35130 ft | 525 kts | 115° |
| 2026-05-08 03:33 | 31.42276 | -104.72908 | 35103 ft | 528 kts | 115° |
| 2026-05-08 03:34 | 31.40151 | -104.64752 | 35112 ft | 526 kts | 115° |
| 2026-05-08 03:34 | 31.38000 | -104.56525 | 35123 ft | 527 kts | 116° |
| 2026-05-08 03:35 | 31.35866 | -104.48389 | 35134 ft | 528 kts | 116° |
| 2026-05-08 03:35 | 31.33706 | -104.40176 | 35128 ft | 528 kts | 116° |
| 2026-05-08 03:36 | 31.31556 | -104.32018 | 35095 ft | 526 kts | 117° |
| 2026-05-08 03:36 | 31.29386 | -104.23820 | 35081 ft | 529 kts | 116° |
| 2026-05-08 03:37 | 31.27208 | -104.15608 | 35074 ft | 529 kts | 117° |
| 2026-05-08 03:37 | 31.25033 | -104.07422 | 35071 ft | 526 kts | 117° |
| 2026-05-08 03:38 | 31.22862 | -103.99291 | 35075 ft | 529 kts | 117° |
| 2026-05-08 03:38 | 31.20678 | -103.91124 | 35072 ft | 527 kts | 117° |
| 2026-05-08 03:39 | 31.18500 | -103.82996 | 35069 ft | 524 kts | 117° |
| 2026-05-08 03:39 | 31.16315 | -103.74886 | 35069 ft | 528 kts | 117° |
| 2026-05-08 03:40 | 31.14096 | -103.66648 | 35062 ft | 522 kts | 117° |
| 2026-05-08 03:40 | 31.11896 | -103.58527 | 35066 ft | 527 kts | 117° |
| 2026-05-08 03:41 | 31.09708 | -103.50454 | 35061 ft | 524 kts | 117° |
| 2026-05-08 03:41 | 31.07507 | -103.42364 | 35069 ft | 525 kts | 117° |
| 2026-05-08 03:42 | 31.05288 | -103.34226 | 35053 ft | 523 kts | 118° |
| 2026-05-08 03:42 | 31.03078 | -103.26150 | 35036 ft | 524 kts | 117° |
| 2026-05-08 03:43 | 31.00876 | -103.18112 | 35024 ft | 518 kts | 118° |
| 2026-05-08 03:43 | 30.98654 | -103.10050 | 35023 ft | 525 kts | 118° |
| 2026-05-08 03:44 | 30.96393 | -103.02026 | 35020 ft | 516 kts | 122° |
| 2026-05-08 03:44 | 30.93042 | -102.94855 | 35024 ft | 496 kts | 137° |
| 2026-05-08 03:45 | 30.88817 | -102.88627 | 35039 ft | 488 kts | 140° |
| 2026-05-08 03:45 | 30.84562 | -102.82512 | 35049 ft | 489 kts | 140° |
| 2026-05-08 03:46 | 30.80240 | -102.76347 | 35046 ft | 489 kts | 140° |
| 2026-05-08 03:46 | 30.75959 | -102.70266 | 35051 ft | 490 kts | 140° |
| 2026-05-08 03:47 | 30.71611 | -102.64111 | 35051 ft | 491 kts | 140° |
| 2026-05-08 03:47 | 30.67287 | -102.57999 | 35061 ft | 491 kts | 140° |
| 2026-05-08 03:48 | 30.62929 | -102.51859 | 35060 ft | 491 kts | 140° |
| 2026-05-08 03:48 | 30.58598 | -102.45763 | 35065 ft | 494 kts | 140° |
| 2026-05-08 03:49 | 30.54254 | -102.39658 | 35054 ft | 489 kts | 140° |
| 2026-05-08 03:49 | 30.49884 | -102.33535 | 35040 ft | 496 kts | 141° |
| 2026-05-08 03:50 | 30.45491 | -102.27378 | 35030 ft | 492 kts | 140° |
| 2026-05-08 03:50 | 30.41067 | -102.21196 | 35025 ft | 497 kts | 140° |
| 2026-05-08 03:51 | 30.36690 | -102.15083 | 35025 ft | 495 kts | 140° |
| 2026-05-08 03:51 | 30.32266 | -102.08921 | 35020 ft | 500 kts | 140° |
| 2026-05-08 03:52 | 30.27832 | -102.02745 | 35019 ft | 496 kts | 140° |
| 2026-05-08 03:52 | 30.23424 | -101.96622 | 35020 ft | 497 kts | 140° |
| 2026-05-08 03:53 | 30.18963 | -101.90438 | 35016 ft | 504 kts | 140° |
| 2026-05-08 03:53 | 30.14520 | -101.84277 | 35012 ft | 497 kts | 140° |
| 2026-05-08 03:54 | 30.10034 | -101.78079 | 35011 ft | 503 kts | 140° |
| 2026-05-08 03:54 | 30.05591 | -101.71941 | 35014 ft | 503 kts | 140° |
| 2026-05-08 03:55 | 30.01111 | -101.65764 | 35018 ft | 501 kts | 140° |
| 2026-05-08 03:55 | 29.96648 | -101.59618 | 35003 ft | 499 kts | 140° |
| 2026-05-08 03:56 | 29.92184 | -101.53481 | 35012 ft | 498 kts | 140° |
| 2026-05-08 03:56 | 29.87726 | -101.47366 | 35031 ft | 500 kts | 140° |
| 2026-05-08 03:57 | 29.83246 | -101.41226 | 35024 ft | 501 kts | 140° |
| 2026-05-08 03:57 | 29.78761 | -101.35090 | 35033 ft | 499 kts | 140° |
| 2026-05-08 03:58 | 29.74255 | -101.28935 | 35012 ft | 501 kts | 140° |
| 2026-05-08 03:58 | 29.69785 | -101.22837 | 35011 ft | 500 kts | 140° |
| 2026-05-08 03:59 | 29.65310 | -101.16740 | 35018 ft | 497 kts | 140° |
| 2026-05-08 03:59 | 29.60827 | -101.10646 | 35003 ft | 499 kts | 140° |
| 2026-05-08 04:00 | 29.56385 | -101.04613 | 35009 ft | 499 kts | 140° |
| 2026-05-08 04:00 | 29.51891 | -100.98521 | 35005 ft | 498 kts | 140° |
| 2026-05-08 04:01 | 29.47393 | -100.92434 | 34999 ft | 500 kts | 140° |
| 2026-05-08 04:01 | 29.42909 | -100.86371 | 35005 ft | 499 kts | 140° |
| 2026-05-08 04:02 | 29.38426 | -100.80326 | 34995 ft | 497 kts | 142° |
| 2026-05-08 04:02 | 29.33285 | -100.75221 | 35000 ft | 484 kts | 156° |
| 2026-05-08 04:03 | 29.27748 | -100.71085 | 35001 ft | 473 kts | 157° |
| 2026-05-08 04:03 | 29.19423 | -100.64958 | 35001 ft | 472 kts | 157° |
| 2026-05-08 04:04 | 29.13925 | -100.60928 | 35001 ft | 472 kts | 157° |
| 2026-05-08 04:04 | 29.08377 | -100.56870 | 35003 ft | 472 kts | 157° |
| 2026-05-08 04:05 | 29.02820 | -100.52813 | 35006 ft | 474 kts | 157° |
| 2026-05-08 04:05 | 28.97263 | -100.48762 | 35004 ft | 474 kts | 158° |
| 2026-05-08 04:06 | 28.91722 | -100.44727 | 34999 ft | 473 kts | 157° |
| 2026-05-08 04:06 | 28.86128 | -100.40659 | 35013 ft | 473 kts | 157° |
| 2026-05-08 04:07 | 28.80591 | -100.36638 | 35015 ft | 471 kts | 157° |
| 2026-05-08 04:07 | 28.75071 | -100.32636 | 34999 ft | 473 kts | 158° |
| 2026-05-08 04:08 | 28.69500 | -100.28603 | 35000 ft | 475 kts | 158° |
| 2026-05-08 04:08 | 28.63914 | -100.24560 | 35000 ft | 472 kts | 158° |
| 2026-05-08 04:09 | 28.58364 | -100.20552 | 34997 ft | 474 kts | 158° |
| 2026-05-08 04:09 | 28.52786 | -100.16528 | 35001 ft | 475 kts | 157° |
| 2026-05-08 04:10 | 28.47234 | -100.12526 | 34997 ft | 473 kts | 158° |
| 2026-05-08 04:10 | 28.41691 | -100.08539 | 34996 ft | 476 kts | 157° |
| 2026-05-08 04:11 | 28.36096 | -100.04515 | 34996 ft | 473 kts | 158° |
| 2026-05-08 04:11 | 28.30523 | -100.00517 | 34996 ft | 477 kts | 157° |
| 2026-05-08 04:12 | 28.24913 | -99.96493 | 34990 ft | 473 kts | 157° |
| 2026-05-08 04:12 | 28.19355 | -99.92514 | 34989 ft | 477 kts | 157° |
| 2026-05-08 04:13 | 28.13753 | -99.88508 | 34984 ft | 474 kts | 157° |
| 2026-05-08 04:13 | 28.08153 | -99.84507 | 34984 ft | 476 kts | 157° |
| 2026-05-08 04:14 | 28.02578 | -99.80533 | 34979 ft | 477 kts | 157° |
| 2026-05-08 04:14 | 27.96969 | -99.76533 | 34976 ft | 472 kts | 157° |
| 2026-05-08 04:15 | 27.91349 | -99.72537 | 34977 ft | 477 kts | 157° |
| 2026-05-08 04:15 | 27.85756 | -99.68561 | 34994 ft | 477 kts | 157° |
| 2026-05-08 04:16 | 27.80141 | -99.64575 | 34997 ft | 475 kts | 157° |
| 2026-05-08 04:16 | 27.74537 | -99.60601 | 35001 ft | 474 kts | 157° |
| 2026-05-08 04:17 | 27.68969 | -99.56660 | 35002 ft | 475 kts | 156° |
| 2026-05-08 04:17 | 27.63378 | -99.52707 | 35003 ft | 477 kts | 156° |
| 2026-05-08 04:18 | 27.57760 | -99.48737 | 35003 ft | 475 kts | 156° |
| 2026-05-08 04:18 | 27.52140 | -99.44773 | 35001 ft | 475 kts | 156° |
| 2026-05-08 04:19 | 27.46765 | -99.40492 | 35002 ft | 488 kts | 145° |
| 2026-05-08 04:19 | 27.41892 | -99.35042 | 35005 ft | 493 kts | 143° |
| 2026-05-08 04:20 | 27.37103 | -99.29595 | 34990 ft | 489 kts | 143° |
| 2026-05-08 04:20 | 27.32263 | -99.24115 | 34992 ft | 492 kts | 143° |
| 2026-05-08 04:21 | 27.27455 | -99.18681 | 34996 ft | 492 kts | 143° |
| 2026-05-08 04:21 | 27.22633 | -99.13243 | 34989 ft | 493 kts | 143° |
| 2026-05-08 04:22 | 27.17788 | -99.07785 | 34977 ft | 488 kts | 143° |
| 2026-05-08 04:22 | 27.13000 | -99.02403 | 34983 ft | 492 kts | 142° |
| 2026-05-08 04:23 | 27.08133 | -98.96937 | 34991 ft | 491 kts | 142° |
| 2026-05-08 04:23 | 27.03307 | -98.91525 | 34987 ft | 488 kts | 142° |
| 2026-05-08 04:24 | 26.98491 | -98.86131 | 34989 ft | 489 kts | 142° |
| 2026-05-08 04:24 | 26.93655 | -98.80727 | 34989 ft | 494 kts | 142° |
| 2026-05-08 04:25 | 26.88823 | -98.75326 | 34988 ft | 490 kts | 142° |
| 2026-05-08 04:25 | 26.83966 | -98.69909 | 34985 ft | 493 kts | 142° |
| 2026-05-08 04:26 | 26.79096 | -98.64484 | 34976 ft | 494 kts | 142° |
| 2026-05-08 04:26 | 26.74232 | -98.59072 | 34968 ft | 497 kts | 142° |
| 2026-05-08 04:27 | 26.69294 | -98.53584 | 34969 ft | 494 kts | 141° |
| 2026-05-08 04:27 | 26.64377 | -98.48128 | 34964 ft | 498 kts | 141° |
| 2026-05-08 04:28 | 26.59414 | -98.42627 | 34965 ft | 497 kts | 141° |
| 2026-05-08 04:28 | 26.54486 | -98.37171 | 34961 ft | 498 kts | 141° |
| 2026-05-08 04:29 | 26.49513 | -98.31674 | 34954 ft | 499 kts | 141° |
| 2026-05-08 04:29 | 26.44588 | -98.26235 | 34953 ft | 499 kts | 141° |
| 2026-05-08 04:30 | 26.39598 | -98.20734 | 34956 ft | 499 kts | 141° |
| 2026-05-08 04:30 | 26.34675 | -98.15312 | 34957 ft | 502 kts | 141° |
| 2026-05-08 04:31 | 26.29699 | -98.09839 | 34956 ft | 500 kts | 141° |
| 2026-05-08 04:31 | 26.24739 | -98.04391 | 34956 ft | 504 kts | 141° |
| 2026-05-08 04:32 | 26.19743 | -97.98910 | 34956 ft | 504 kts | 141° |
| 2026-05-08 04:32 | 26.14760 | -97.93449 | 34954 ft | 505 kts | 141° |
| 2026-05-08 04:33 | 26.09777 | -97.87996 | 34962 ft | 503 kts | 141° |
| 2026-05-08 04:33 | 26.04778 | -97.82532 | 34962 ft | 504 kts | 141° |
| 2026-05-08 04:34 | 25.99799 | -97.77097 | 34954 ft | 502 kts | 141° |
| 2026-05-08 04:34 | 25.94796 | -97.71644 | 34958 ft | 503 kts | 141° |
| 2026-05-08 04:35 | 25.89741 | -97.66140 | 34953 ft | 504 kts | 141° |
| 2026-05-08 04:35 | 25.84721 | -97.60681 | 34957 ft | 507 kts | 141° |
| 2026-05-08 04:36 | 25.79696 | -97.55222 | 34953 ft | 504 kts | 141° |
| 2026-05-08 04:36 | 25.75292 | -97.49107 | 34960 ft | 517 kts | 126° |
| 2026-05-08 04:37 | 25.71614 | -97.42191 | 34953 ft | 521 kts | 125° |
| 2026-05-08 04:37 | 25.67982 | -97.35332 | 34949 ft | 519 kts | 125° |
| 2026-05-08 04:38 | 25.64304 | -97.28414 | 34924 ft | 518 kts | 126° |
| 2026-05-08 04:38 | 25.60661 | -97.21584 | 34927 ft | 520 kts | 126° |
| 2026-05-08 04:39 | 25.56990 | -97.14716 | 34925 ft | 518 kts | 126° |
| 2026-05-08 04:39 | 25.53317 | -97.07856 | 34919 ft | 516 kts | 126° |
| 2026-05-08 04:40 | 25.49646 | -97.01011 | 34916 ft | 518 kts | 126° |
| 2026-05-08 04:40 | 25.45972 | -96.94169 | 34914 ft | 519 kts | 126° |
| 2026-05-08 04:41 | 25.42301 | -96.87342 | 34921 ft | 515 kts | 125° |
| 2026-05-08 04:41 | 25.38641 | -96.80548 | 34935 ft | 518 kts | 126° |
| 2026-05-08 04:42 | 25.34940 | -96.73689 | 34929 ft | 517 kts | 126° |
| 2026-05-08 04:42 | 25.31272 | -96.66899 | 34930 ft | 517 kts | 125° |
| 2026-05-08 04:43 | 25.27597 | -96.60106 | 34926 ft | 516 kts | 125° |
| 2026-05-08 04:43 | 25.23912 | -96.53305 | 34923 ft | 517 kts | 125° |
| 2026-05-08 04:44 | 25.20240 | -96.46538 | 34923 ft | 514 kts | 125° |
| 2026-05-08 04:44 | 25.16554 | -96.39756 | 34923 ft | 516 kts | 125° |
| 2026-05-08 04:45 | 25.12879 | -96.33003 | 34908 ft | 517 kts | 126° |
| 2026-05-08 04:45 | 25.09177 | -96.26208 | 34909 ft | 516 kts | 126° |
| 2026-05-08 04:46 | 25.05486 | -96.19447 | 34906 ft | 517 kts | 126° |
| 2026-05-08 04:46 | 25.01782 | -96.12669 | 34905 ft | 514 kts | 126° |
| 2026-05-08 04:47 | 24.98094 | -96.05932 | 34901 ft | 516 kts | 126° |
| 2026-05-08 04:47 | 24.94407 | -95.99204 | 34900 ft | 515 kts | 126° |
| 2026-05-08 04:48 | 24.90679 | -95.92412 | 34904 ft | 516 kts | 125° |
| 2026-05-08 04:48 | 24.86978 | -95.85678 | 34916 ft | 517 kts | 125° |
| 2026-05-08 04:49 | 24.83266 | -95.78933 | 34922 ft | 516 kts | 125° |
| 2026-05-08 04:49 | 24.79541 | -95.72176 | 34930 ft | 518 kts | 125° |
| 2026-05-08 04:50 | 24.75816 | -95.65427 | 34930 ft | 519 kts | 125° |
| 2026-05-08 04:50 | 24.72049 | -95.58614 | 34931 ft | 518 kts | 125° |
| 2026-05-08 04:51 | 24.68291 | -95.51826 | 34936 ft | 521 kts | 125° |
| 2026-05-08 04:51 | 24.64545 | -95.45068 | 34939 ft | 518 kts | 125° |
| 2026-05-08 04:52 | 24.60793 | -95.38313 | 34939 ft | 519 kts | 125° |
| 2026-05-08 04:52 | 24.57060 | -95.31598 | 34932 ft | 518 kts | 126° |
| 2026-05-08 04:53 | 24.53302 | -95.24850 | 34927 ft | 519 kts | 126° |
| 2026-05-08 04:53 | 24.49520 | -95.18069 | 34929 ft | 519 kts | 126° |
| 2026-05-08 04:54 | 24.45760 | -95.11334 | 34923 ft | 518 kts | 126° |
| 2026-05-08 04:54 | 24.41995 | -95.04607 | 34925 ft | 519 kts | 126° |
| 2026-05-08 04:55 | 24.38231 | -94.97893 | 34924 ft | 520 kts | 126° |
| 2026-05-08 04:55 | 24.34449 | -94.91153 | 34929 ft | 520 kts | 126° |
| 2026-05-08 04:56 | 24.30653 | -94.84399 | 34926 ft | 519 kts | 126° |
| 2026-05-08 04:56 | 24.26879 | -94.77695 | 34928 ft | 519 kts | 125° |
| 2026-05-08 04:57 | 24.23095 | -94.70978 | 34931 ft | 519 kts | 125° |
| 2026-05-08 04:57 | 24.19304 | -94.64262 | 34931 ft | 519 kts | 125° |
| 2026-05-08 04:58 | 24.15547 | -94.57516 | 34924 ft | 521 kts | 121° |
| 2026-05-08 04:58 | 24.12618 | -94.50166 | 34928 ft | 525 kts | 115° |
| 2026-05-08 04:59 | 24.09881 | -94.42812 | 34932 ft | 524 kts | 115° |
| 2026-05-08 04:59 | 24.07119 | -94.35412 | 34935 ft | 524 kts | 115° |
| 2026-05-08 05:00 | 24.04355 | -94.28027 | 34922 ft | 524 kts | 115° |
| 2026-05-08 05:00 | 24.01590 | -94.20657 | 34923 ft | 525 kts | 115° |
| 2026-05-08 05:01 | 23.98839 | -94.13338 | 34923 ft | 523 kts | 115° |
| 2026-05-08 05:01 | 23.96065 | -94.05971 | 34923 ft | 523 kts | 115° |
| 2026-05-08 05:02 | 23.93292 | -93.98621 | 34924 ft | 523 kts | 115° |
| 2026-05-08 05:02 | 23.90528 | -93.91308 | 34925 ft | 523 kts | 115° |
| 2026-05-08 05:03 | 23.87748 | -93.83964 | 34927 ft | 522 kts | 115° |
| 2026-05-08 05:03 | 23.84973 | -93.76635 | 34928 ft | 523 kts | 115° |
| 2026-05-08 05:04 | 23.82198 | -93.69317 | 34929 ft | 522 kts | 115° |
| 2026-05-08 05:04 | 23.79413 | -93.61983 | 34928 ft | 523 kts | 115° |
| 2026-05-08 05:05 | 23.76648 | -93.54716 | 34933 ft | 521 kts | 115° |
| 2026-05-08 05:05 | 23.73870 | -93.47428 | 34929 ft | 520 kts | 115° |
| 2026-05-08 05:06 | 23.71095 | -93.40158 | 34929 ft | 519 kts | 115° |
| 2026-05-08 05:06 | 23.68302 | -93.32855 | 34919 ft | 519 kts | 115° |
| 2026-05-08 05:07 | 23.65541 | -93.25645 | 34923 ft | 519 kts | 115° |
| 2026-05-08 05:07 | 23.62751 | -93.18372 | 34916 ft | 518 kts | 115° |
| 2026-05-08 05:08 | 23.59981 | -93.11165 | 34914 ft | 520 kts | 115° |
| 2026-05-08 05:08 | 23.57192 | -93.03919 | 34914 ft | 518 kts | 115° |
| 2026-05-08 05:09 | 23.54388 | -92.96646 | 34915 ft | 518 kts | 115° |
| 2026-05-08 05:09 | 23.51605 | -92.89438 | 34917 ft | 518 kts | 115° |
| 2026-05-08 05:10 | 23.47421 | -92.78624 | 34925 ft | 516 kts | 115° |
| 2026-05-08 05:11 | 23.44633 | -92.71434 | 34924 ft | 517 kts | 115° |
| 2026-05-08 05:11 | 23.41842 | -92.64247 | 34927 ft | 516 kts | 115° |
| 2026-05-08 05:12 | 23.39062 | -92.57099 | 34926 ft | 516 kts | 115° |
| 2026-05-08 05:12 | 23.36264 | -92.49917 | 34921 ft | 516 kts | 115° |
| 2026-05-08 05:13 | 23.33472 | -92.42763 | 34929 ft | 515 kts | 115° |
| 2026-05-08 05:13 | 23.30661 | -92.35570 | 34932 ft | 516 kts | 115° |
| 2026-05-08 05:14 | 23.27863 | -92.28422 | 34924 ft | 514 kts | 115° |
| 2026-05-08 05:14 | 23.25066 | -92.21288 | 34924 ft | 515 kts | 115° |
| 2026-05-08 05:15 | 23.22255 | -92.14128 | 34929 ft | 514 kts | 115° |
| 2026-05-08 05:15 | 23.19450 | -92.06995 | 34927 ft | 512 kts | 115° |
| 2026-05-08 05:16 | 23.16654 | -91.99897 | 34926 ft | 513 kts | 115° |
| 2026-05-08 05:16 | 23.13840 | -91.92764 | 34928 ft | 514 kts | 115° |
| 2026-05-08 05:17 | 23.11020 | -91.85626 | 34929 ft | 515 kts | 115° |
| 2026-05-08 05:17 | 23.08205 | -91.78511 | 34929 ft | 514 kts | 115° |
| 2026-05-08 05:18 | 23.05382 | -91.71387 | 34928 ft | 513 kts | 115° |
| 2026-05-08 05:18 | 23.02577 | -91.64320 | 34925 ft | 513 kts | 115° |
| 2026-05-08 05:19 | 22.99748 | -91.57204 | 34930 ft | 513 kts | 115° |
| 2026-05-08 05:19 | 22.96918 | -91.50095 | 34927 ft | 513 kts | 115° |
| 2026-05-08 05:20 | 22.94103 | -91.43037 | 34928 ft | 512 kts | 115° |
| 2026-05-08 05:20 | 22.91268 | -91.35947 | 34928 ft | 514 kts | 115° |
| 2026-05-08 05:21 | 22.88431 | -91.28863 | 34920 ft | 514 kts | 115° |
| 2026-05-08 05:21 | 22.85593 | -91.21785 | 34921 ft | 513 kts | 115° |
| 2026-05-08 05:22 | 22.82749 | -91.14705 | 34921 ft | 514 kts | 115° |
| 2026-05-08 05:22 | 22.79896 | -91.07611 | 34922 ft | 512 kts | 115° |
| 2026-05-08 05:23 | 22.77050 | -91.00549 | 34921 ft | 513 kts | 115° |
| 2026-05-08 05:23 | 22.74194 | -90.93469 | 34920 ft | 513 kts | 115° |
| 2026-05-08 05:24 | 22.71347 | -90.86423 | 34918 ft | 512 kts | 115° |
| 2026-05-08 05:24 | 22.68500 | -90.79388 | 34919 ft | 512 kts | 115° |
| 2026-05-08 05:25 | 22.65645 | -90.72343 | 34921 ft | 512 kts | 115° |
| 2026-05-08 05:25 | 22.62769 | -90.65258 | 34919 ft | 512 kts | 115° |
| 2026-05-08 05:26 | 22.59922 | -90.58253 | 34916 ft | 513 kts | 115° |
| 2026-05-08 05:26 | 22.57051 | -90.51201 | 34915 ft | 513 kts | 115° |
| 2026-05-08 05:27 | 22.54181 | -90.44161 | 34912 ft | 512 kts | 115° |
| 2026-05-08 05:27 | 22.51800 | -90.36913 | 34912 ft | 513 kts | 102° |
| 2026-05-08 05:28 | 22.50602 | -90.29305 | 34908 ft | 515 kts | 99° |
| 2026-05-08 05:28 | 22.49471 | -90.21738 | 34908 ft | 515 kts | 99° |
| 2026-05-08 05:29 | 22.48323 | -90.14112 | 34910 ft | 514 kts | 99° |
| 2026-05-08 05:29 | 22.47174 | -90.06522 | 34910 ft | 513 kts | 99° |
| 2026-05-08 05:30 | 22.46016 | -89.98903 | 34919 ft | 514 kts | 99° |
| 2026-05-08 05:30 | 22.44857 | -89.91309 | 34921 ft | 513 kts | 99° |
| 2026-05-08 05:31 | 22.43694 | -89.83721 | 34924 ft | 515 kts | 99° |
| 2026-05-08 05:31 | 22.42527 | -89.76126 | 34925 ft | 515 kts | 99° |
| 2026-05-08 05:32 | 22.41350 | -89.68494 | 34928 ft | 514 kts | 99° |
| 2026-05-08 05:32 | 22.40171 | -89.60878 | 34927 ft | 513 kts | 99° |
| 2026-05-08 05:33 | 22.38994 | -89.53289 | 34922 ft | 513 kts | 99° |
| 2026-05-08 05:33 | 22.37817 | -89.45735 | 34921 ft | 513 kts | 99° |
| 2026-05-08 05:34 | 22.36638 | -89.38184 | 34924 ft | 513 kts | 99° |
| 2026-05-08 05:34 | 22.35444 | -89.30566 | 34917 ft | 514 kts | 99° |
| 2026-05-08 05:35 | 22.34255 | -89.23005 | 34921 ft | 513 kts | 99° |
| 2026-05-08 05:35 | 22.33059 | -89.15421 | 34926 ft | 514 kts | 99° |
| 2026-05-08 05:36 | 22.31863 | -89.07857 | 34929 ft | 513 kts | 99° |
| 2026-05-08 05:36 | 22.30663 | -89.00291 | 34933 ft | 514 kts | 100° |
| 2026-05-08 05:37 | 22.29453 | -88.92692 | 34933 ft | 512 kts | 100° |
| 2026-05-08 05:37 | 22.28859 | -88.88970 | 34624 ft | 506 kts | 100° |
| 2026-05-08 05:37 | 22.28259 | -88.85214 | 33731 ft | 509 kts | 100° |
| 2026-05-08 05:37 | 22.27656 | -88.81445 | 32896 ft | 510 kts | 100° |
| 2026-05-08 05:38 | 22.27055 | -88.77691 | 32190 ft | 510 kts | 101° |
| 2026-05-08 05:38 | 22.26456 | -88.73959 | 31417 ft | 512 kts | 101° |
| 2026-05-08 05:38 | 22.25844 | -88.70155 | 30612 ft | 514 kts | 100° |
| 2026-05-08 05:38 | 22.25241 | -88.66412 | 30126 ft | 508 kts | 101° |
| 2026-05-08 05:39 | 22.24635 | -88.62650 | 29664 ft | 503 kts | 101° |
| 2026-05-08 05:39 | 22.24043 | -88.58980 | 29166 ft | 498 kts | 101° |
| 2026-05-08 05:39 | 22.23451 | -88.55321 | 28641 ft | 494 kts | 101° |
| 2026-05-08 05:39 | 22.22868 | -88.51720 | 28107 ft | 491 kts | 101° |
| 2026-05-08 05:40 | 22.22282 | -88.48104 | 27580 ft | 487 kts | 101° |
| 2026-05-08 05:40 | 22.21700 | -88.44521 | 27044 ft | 483 kts | 101° |
| 2026-05-08 05:40 | 22.21121 | -88.40965 | 26509 ft | 479 kts | 101° |
| 2026-05-08 05:40 | 22.20552 | -88.37469 | 25977 ft | 476 kts | 101° |
| 2026-05-08 05:41 | 22.19982 | -88.33975 | 25423 ft | 472 kts | 101° |
| 2026-05-08 05:41 | 22.19411 | -88.30476 | 24866 ft | 469 kts | 101° |
| 2026-05-08 05:41 | 22.18854 | -88.27074 | 24319 ft | 465 kts | 102° |
| 2026-05-08 05:41 | 22.18289 | -88.23621 | 23755 ft | 462 kts | 102° |
| 2026-05-08 05:42 | 22.17737 | -88.20255 | 23210 ft | 458 kts | 102° |
| 2026-05-08 05:42 | 22.17186 | -88.16898 | 22649 ft | 455 kts | 102° |
| 2026-05-08 05:42 | 22.16633 | -88.13539 | 22092 ft | 452 kts | 102° |
| 2026-05-08 05:42 | 22.16093 | -88.10255 | 21508 ft | 445 kts | 102° |
| 2026-05-08 05:43 | 22.15555 | -88.06992 | 20969 ft | 436 kts | 102° |
| 2026-05-08 05:43 | 22.15035 | -88.03841 | 20480 ft | 429 kts | 101° |
| 2026-05-08 05:43 | 22.14508 | -88.00677 | 20022 ft | 418 kts | 103° |
| 2026-05-08 05:43 | 22.13730 | -87.97773 | 19943 ft | 396 kts | 114° |
| 2026-05-08 05:44 | 22.12514 | -87.95188 | 19955 ft | 385 kts | 124° |
| 2026-05-08 05:44 | 22.10898 | -87.92908 | 19693 ft | 386 kts | 133° |
| 2026-05-08 05:44 | 22.09047 | -87.90779 | 19132 ft | 382 kts | 135° |
| 2026-05-08 05:44 | 22.07219 | -87.88783 | 18702 ft | 375 kts | 135° |
| 2026-05-08 05:45 | 22.05258 | -87.86706 | 18242 ft | 372 kts | 136° |
| 2026-05-08 05:45 | 22.03421 | -87.84792 | 17815 ft | 370 kts | 136° |
| 2026-05-08 05:45 | 22.01558 | -87.82886 | 17392 ft | 367 kts | 136° |
| 2026-05-08 05:45 | 21.99702 | -87.81014 | 16979 ft | 365 kts | 136° |
| 2026-05-08 05:46 | 21.97846 | -87.79156 | 16560 ft | 362 kts | 136° |
| 2026-05-08 05:46 | 21.96001 | -87.77317 | 16152 ft | 359 kts | 137° |
| 2026-05-08 05:46 | 21.94162 | -87.75492 | 15748 ft | 356 kts | 137° |
| 2026-05-08 05:46 | 21.92339 | -87.73688 | 15342 ft | 353 kts | 137° |
| 2026-05-08 05:47 | 21.90550 | -87.71921 | 14944 ft | 350 kts | 136° |
| 2026-05-08 05:47 | 21.88751 | -87.70146 | 14549 ft | 347 kts | 136° |
| 2026-05-08 05:47 | 21.86977 | -87.68398 | 14128 ft | 344 kts | 136° |
| 2026-05-08 05:47 | 21.85239 | -87.66685 | 13756 ft | 336 kts | 136° |
| 2026-05-08 05:48 | 21.83534 | -87.65005 | 13391 ft | 328 kts | 136° |
| 2026-05-08 05:48 | 21.81876 | -87.63374 | 13031 ft | 321 kts | 136° |
| 2026-05-08 05:48 | 21.80184 | -87.61710 | 12665 ft | 314 kts | 136° |
| 2026-05-08 05:48 | 21.78590 | -87.60142 | 12311 ft | 307 kts | 136° |
| 2026-05-08 05:49 | 21.77042 | -87.58620 | 11971 ft | 301 kts | 136° |
| 2026-05-08 05:49 | 21.75469 | -87.57074 | 11623 ft | 295 kts | 136° |
| 2026-05-08 05:49 | 21.73953 | -87.55584 | 11279 ft | 289 kts | 136° |
| 2026-05-08 05:49 | 21.72477 | -87.54134 | 10974 ft | 285 kts | 136° |
| 2026-05-08 05:50 | 21.71020 | -87.52702 | 10650 ft | 283 kts | 136° |
| 2026-05-08 05:50 | 21.69573 | -87.51281 | 10323 ft | 282 kts | 136° |
| 2026-05-08 05:50 | 21.68134 | -87.49869 | 10001 ft | 280 kts | 136° |
| 2026-05-08 05:50 | 21.66691 | -87.48453 | 9631 ft | 280 kts | 136° |
| 2026-05-08 05:51 | 21.65240 | -87.47029 | 9251 ft | 281 kts | 136° |
| 2026-05-08 05:51 | 21.63796 | -87.45619 | 8878 ft | 281 kts | 138° |
| 2026-05-08 05:51 | 21.62268 | -87.44307 | 8585 ft | 278 kts | 141° |
| 2026-05-08 05:51 | 21.60760 | -87.43048 | 8315 ft | 275 kts | 140° |
| 2026-05-08 05:52 | 21.59266 | -87.41782 | 8032 ft | 272 kts | 140° |
| 2026-05-08 05:52 | 21.57790 | -87.40521 | 7756 ft | 269 kts | 140° |
| 2026-05-08 05:52 | 21.56329 | -87.39270 | 7471 ft | 266 kts | 140° |
| 2026-05-08 05:52 | 21.54884 | -87.38032 | 7191 ft | 263 kts | 140° |
| 2026-05-08 05:53 | 21.53437 | -87.36794 | 6917 ft | 260 kts | 139° |
| 2026-05-08 05:53 | 21.52023 | -87.35583 | 6647 ft | 257 kts | 139° |
| 2026-05-08 05:53 | 21.50652 | -87.34409 | 6369 ft | 254 kts | 140° |
| 2026-05-08 05:53 | 21.49284 | -87.33239 | 6123 ft | 248 kts | 140° |
| 2026-05-08 05:54 | 21.47914 | -87.32067 | 5870 ft | 247 kts | 140° |
| 2026-05-08 05:54 | 21.46579 | -87.30925 | 5614 ft | 241 kts | 140° |
| 2026-05-08 05:54 | 21.45252 | -87.29791 | 5362 ft | 235 kts | 140° |
| 2026-05-08 05:54 | 21.43919 | -87.28651 | 5105 ft | 228 kts | 140° |
| 2026-05-08 05:55 | 21.42666 | -87.27580 | 4874 ft | 224 kts | 140° |
| 2026-05-08 05:55 | 21.41405 | -87.26502 | 4629 ft | 222 kts | 140° |
| 2026-05-08 05:55 | 21.40133 | -87.25416 | 4386 ft | 222 kts | 140° |
| 2026-05-08 05:55 | 21.38922 | -87.24381 | 4151 ft | 220 kts | 140° |
| 2026-05-08 05:56 | 21.37666 | -87.23444 | 3999 ft | 217 kts | 149° |
| 2026-05-08 05:56 | 21.36243 | -87.22652 | 3984 ft | 220 kts | 151° |
| 2026-05-08 05:56 | 21.34844 | -87.21897 | 3982 ft | 219 kts | 151° |
| 2026-05-08 05:56 | 21.33468 | -87.21152 | 3984 ft | 221 kts | 151° |
| 2026-05-08 05:57 | 21.32046 | -87.20381 | 3982 ft | 220 kts | 150° |
| 2026-05-08 05:57 | 21.30586 | -87.19589 | 3982 ft | 219 kts | 150° |
| 2026-05-08 05:57 | 21.29177 | -87.18913 | 3968 ft | 222 kts | 156° |
| 2026-05-08 05:57 | 21.27625 | -87.18308 | 3551 ft | 229 kts | 158° |
| 2026-05-08 05:58 | 21.26074 | -87.17716 | 3115 ft | 225 kts | 158° |
| 2026-05-08 05:58 | 21.24649 | -87.17170 | 2814 ft | 217 kts | 158° |
| 2026-05-08 05:58 | 21.23184 | -87.16605 | 2453 ft | 216 kts | 158° |
| 2026-05-08 05:58 | 21.21741 | -87.15986 | 2093 ft | 211 kts | 147° |
| 2026-05-08 05:59 | 21.20693 | -87.14884 | 1996 ft | 211 kts | 127° |
| 2026-05-08 05:59 | 21.19809 | -87.13570 | 1989 ft | 211 kts | 124° |
| 2026-05-08 05:59 | 21.19045 | -87.12210 | 1989 ft | 211 kts | 121° |
| 2026-05-08 05:59 | 21.18267 | -87.10854 | 1986 ft | 211 kts | 122° |
| 2026-05-08 06:00 | 21.17445 | -87.09515 | 1987 ft | 211 kts | 123° |
| 2026-05-08 06:00 | 21.16594 | -87.08177 | 1989 ft | 210 kts | 124° |
| 2026-05-08 06:00 | 21.15791 | -87.06927 | 1980 ft | 194 kts | 124° |
| 2026-05-08 06:00 | 21.15047 | -87.05765 | 1960 ft | 176 kts | 124° |
| 2026-05-08 06:01 | 21.14347 | -87.04665 | 1951 ft | 170 kts | 124° |
| 2026-05-08 06:01 | 21.13679 | -87.03606 | 1943 ft | 170 kts | 124° |
| 2026-05-08 06:01 | 21.13003 | -87.02528 | 1943 ft | 169 kts | 124° |
| 2026-05-08 06:01 | 21.12346 | -87.01484 | 1941 ft | 170 kts | 124° |
| 2026-05-08 06:02 | 21.11680 | -87.00425 | 1941 ft | 168 kts | 124° |
| 2026-05-08 06:02 | 21.11032 | -86.99393 | 1937 ft | 166 kts | 124° |
| 2026-05-08 06:02 | 21.10403 | -86.98396 | 1920 ft | 153 kts | 124° |
| 2026-05-08 06:02 | 21.09813 | -86.97463 | 1817 ft | 151 kts | 124° |
| 2026-05-08 06:03 | 21.09255 | -86.96577 | 1628 ft | 137 kts | 124° |
| 2026-05-08 06:03 | 21.08725 | -86.95734 | 1457 ft | 135 kts | 124° |
| 2026-05-08 06:03 | 21.08197 | -86.94897 | 1285 ft | 136 kts | 124° |
| 2026-05-08 06:03 | 21.07662 | -86.94045 | 1108 ft | 137 kts | 124° |
| 2026-05-08 06:04 | 21.07125 | -86.93194 | 930 ft | 138 kts | 124° |
| 2026-05-08 06:04 | 21.06577 | -86.92331 | 764 ft | 140 kts | 125° |
| 2026-05-08 06:04 | 21.06029 | -86.91458 | 572 ft | 141 kts | 124° |
| 2026-05-08 06:04 | 21.05483 | -86.90604 | 394 ft | 142 kts | 124° |
| 2026-05-08 06:05 | 21.04926 | -86.89703 | 203 ft | 144 kts | 124° |
| 2026-05-08 06:05 | 21.04362 | -86.88817 | 55 ft | 145 kts | 124° |
| 2026-05-08 06:05 | 21.03823 | -86.87964 | 33 ft | 129 kts | 123° |
| 2026-05-08 06:05 | 21.03378 | -86.87247 | 38 ft | 97 kts | 124° |
| 2026-05-08 06:06 | 21.03125 | -86.86855 | 42 ft | 42 kts | 124° |
| 2026-05-08 06:06 | 21.03031 | -86.86691 | 44 ft | 11 kts | 104° |
| 2026-05-08 06:06 | 21.03058 | -86.86628 | 45 ft | 9 kts | 39° |
| 2026-05-08 06:06 | 21.03111 | -86.86593 | 45 ft | 8 kts | 22° |
| 2026-05-08 06:07 | 21.03157 | -86.86607 | 45 ft | 7 kts | 314° |
| 2026-05-08 06:07 | 21.03194 | -86.86652 | 44 ft | 10 kts | 307° |
| 2026-05-08 06:07 | 21.03254 | -86.86747 | 43 ft | 20 kts | 303° |
| 2026-05-08 06:07 | 21.03350 | -86.86900 | 42 ft | 29 kts | 303° |
| 2026-05-08 06:08 | 21.03471 | -86.87096 | 39 ft | 31 kts | 302° |
| 2026-05-08 06:08 | 21.03589 | -86.87288 | 36 ft | 29 kts | 306° |
| 2026-05-08 06:08 | 21.03704 | -86.87466 | 34 ft | 28 kts | 302° |
| 2026-05-08 06:08 | 21.03809 | -86.87638 | 33 ft | 26 kts | 303° |
| 2026-05-08 06:09 | 21.03894 | -86.87772 | 33 ft | 14 kts | 304° |
| 2026-05-08 06:09 | 21.03946 | -86.87837 | 33 ft | 9 kts | 338° |
| 2026-05-08 06:09 | 21.04008 | -86.87828 | 34 ft | 8 kts | 31° |
| 2026-05-08 06:09 | 21.04052 | -86.87802 | 34 ft | 5 kts | 10° |
| 2026-05-08 06:10 | 21.04078 | -86.87821 | 34 ft | 4 kts | 299° |
| 2026-05-08 06:10 | 21.04095 | -86.87846 | 35 ft | 3 kts | 306° |
| 2026-05-08 06:10 | 21.04096 | -86.87848 | 35 ft | 0 kts | 306° |